sensor_id;sensor_type;location;lat;lon;timestamp;noise_LAeq;noise_LA_min;noise_LA_max;noise_LA01;noise_LA95
60031;Laerm;45901;47.600;9.890;2023-05-31T00:00:23;40.24;35.36;50.78;;
60031;Laerm;45901;47.600;9.890;2023-05-31T00:02:51;39.71;35.94;44.65;;
60031;Laerm;45901;47.600;9.890;2023-05-31T00:05:22;39.47;35.66;44.83;;
60031;Laerm;45901;47.600;9.890;2023-05-31T00:07:52;39.45;35.86;44.15;;
60031;Laerm;45901;47.600;9.890;2023-05-31T00:10:21;39.53;35.66;44.47;;
60031;Laerm;45901;47.600;9.890;2023-05-31T00:12:51;39.35;35.36;44.19;;
60031;Laerm;45901;47.600;9.890;2023-05-31T00:15:22;39.58;35.94;46.15;;
60031;Laerm;45901;47.600;9.890;2023-05-31T00:17:53;38.80;35.66;41.06;;
60031;Laerm;45901;47.600;9.890;2023-05-31T00:20:22;38.84;35.66;41.53;;
60031;Laerm;45901;47.600;9.890;2023-05-31T00:22:50;39.10;35.04;42.09;;
60031;Laerm;45901;47.600;9.890;2023-05-31T00:25:18;39.17;35.94;44.15;;
60031;Laerm;45901;47.600;9.890;2023-05-31T00:27:53;39.37;35.66;44.43;;
60031;Laerm;45901;47.600;9.890;2023-05-31T00:30:22;39.46;35.94;50.45;;
60031;Laerm;45901;47.600;9.890;2023-05-31T00:32:50;38.92;35.04;42.09;;
60031;Laerm;45901;47.600;9.890;2023-05-31T00:35:20;39.47;35.66;44.73;;
60031;Laerm;45901;47.600;9.890;2023-05-31T00:37:49;39.77;36.20;44.27;;
60031;Laerm;45901;47.600;9.890;2023-05-31T00:40:18;39.72;36.20;44.23;;
60031;Laerm;45901;47.600;9.890;2023-05-31T00:42:58;39.48;35.94;44.15;;
60031;Laerm;45901;47.600;9.890;2023-05-31T00:45:25;39.67;34.69;48.60;;
60031;Laerm;45901;47.600;9.890;2023-05-31T00:47:55;39.25;35.66;44.23;;
60031;Laerm;45901;47.600;9.890;2023-05-31T00:50:23;38.87;35.94;41.46;;
60031;Laerm;45901;47.600;9.890;2023-05-31T00:52:55;38.85;35.94;40.98;;
60031;Laerm;45901;47.600;9.890;2023-05-31T00:55:24;38.82;35.94;40.98;;
60031;Laerm;45901;47.600;9.890;2023-05-31T00:57:54;39.04;35.94;44.31;;
60031;Laerm;45901;47.600;9.890;2023-05-31T01:00:22;39.49;35.94;50.36;;
60031;Laerm;45901;47.600;9.890;2023-05-31T01:02:51;38.85;35.36;41.06;;
60031;Laerm;45901;47.600;9.890;2023-05-31T01:05:21;38.85;35.94;41.46;;
60031;Laerm;45901;47.600;9.890;2023-05-31T01:07:49;38.95;36.20;41.22;;
60031;Laerm;45901;47.600;9.890;2023-05-31T01:10:23;38.84;35.94;41.22;;
60031;Laerm;45901;47.600;9.890;2023-05-31T01:13:01;38.86;35.04;41.68;;
60031;Laerm;45901;47.600;9.890;2023-05-31T01:15:35;38.97;36.45;46.91;;
60031;Laerm;45901;47.600;9.890;2023-05-31T01:18:11;38.91;36.10;41.14;;
60031;Laerm;45901;47.600;9.890;2023-05-31T01:20:45;38.94;35.66;41.30;;
60031;Laerm;45901;47.600;9.890;2023-05-31T01:23:48;38.90;35.66;41.38;;
60031;Laerm;45901;47.600;9.890;2023-05-31T01:26:35;38.90;35.94;41.30;;
60031;Laerm;45901;47.600;9.890;2023-05-31T01:29:07;39.03;36.20;46.95;;
60031;Laerm;45901;47.600;9.890;2023-05-31T01:31:37;38.92;35.94;41.14;;
60031;Laerm;45901;47.600;9.890;2023-05-31T01:34:04;38.99;36.20;42.03;;
60031;Laerm;45901;47.600;9.890;2023-05-31T01:36:31;39.00;35.94;42.41;;
60031;Laerm;45901;47.600;9.890;2023-05-31T01:39:00;39.21;35.94;42.47;;
60031;Laerm;45901;47.600;9.890;2023-05-31T01:41:33;38.97;36.20;51.55;;
60031;Laerm;45901;47.600;9.890;2023-05-31T01:44:03;39.24;35.36;47.70;;
60031;Laerm;45901;47.600;9.890;2023-05-31T01:46:31;38.97;36.20;41.22;;
60031;Laerm;45901;47.600;9.890;2023-05-31T01:48:58;39.00;35.66;41.14;;
60031;Laerm;45901;47.600;9.890;2023-05-31T01:51:28;39.18;36.20;44.23;;
60031;Laerm;45901;47.600;9.890;2023-05-31T01:53:56;39.31;36.20;44.54;;
60031;Laerm;45901;47.600;9.890;2023-05-31T01:56:24;39.68;36.45;51.15;;
60031;Laerm;45901;47.600;9.890;2023-05-31T01:58:56;40.26;36.20;51.73;;
60031;Laerm;45901;47.600;9.890;2023-05-31T02:01:24;39.36;35.94;42.93;;
60031;Laerm;45901;47.600;9.890;2023-05-31T02:03:52;39.41;35.94;42.22;;
60031;Laerm;45901;47.600;9.890;2023-05-31T02:06:19;39.51;36.45;42.47;;
60031;Laerm;45901;47.600;9.890;2023-05-31T02:08:47;39.48;35.04;42.65;;
60031;Laerm;45901;47.600;9.890;2023-05-31T02:11:14;39.36;36.20;42.41;;
60031;Laerm;45901;47.600;9.890;2023-05-31T02:13:41;39.45;36.20;47.76;;
60031;Laerm;45901;47.600;9.890;2023-05-31T02:16:09;39.26;35.94;44.23;;
60031;Laerm;45901;47.600;9.890;2023-05-31T02:18:36;39.26;36.45;42.65;;
60031;Laerm;45901;47.600;9.890;2023-05-31T02:21:05;39.28;35.66;44.62;;
60031;Laerm;45901;47.600;9.890;2023-05-31T02:23:32;39.36;36.20;44.39;;
60031;Laerm;45901;47.600;9.890;2023-05-31T02:26:00;39.31;35.66;42.41;;
60031;Laerm;45901;47.600;9.890;2023-05-31T02:28:27;39.42;36.45;46.07;;
60031;Laerm;45901;47.600;9.890;2023-05-31T02:30:57;40.23;36.45;50.97;;
60031;Laerm;45901;47.600;9.890;2023-05-31T02:33:27;41.07;36.91;54.17;;
60031;Laerm;45901;47.600;9.890;2023-05-31T02:35:55;41.25;36.45;53.39;;
60031;Laerm;45901;47.600;9.890;2023-05-31T02:38:25;40.66;36.20;51.26;;
60031;Laerm;45901;47.600;9.890;2023-05-31T02:40:52;40.94;35.94;51.48;;
60031;Laerm;45901;47.600;9.890;2023-05-31T02:43:19;41.67;36.69;52.94;;
60031;Laerm;45901;47.600;9.890;2023-05-31T02:45:46;42.14;36.91;53.45;;
60031;Laerm;45901;47.600;9.890;2023-05-31T02:48:14;41.47;37.12;53.58;;
60031;Laerm;45901;47.600;9.890;2023-05-31T02:50:42;41.23;36.91;53.47;;
60031;Laerm;45901;47.600;9.890;2023-05-31T02:53:09;40.63;36.69;52.17;;
60031;Laerm;45901;47.600;9.890;2023-05-31T02:55:36;39.69;37.12;43.34;;
60031;Laerm;45901;47.600;9.890;2023-05-31T02:58:05;39.79;37.12;43.09;;
60031;Laerm;45901;47.600;9.890;2023-05-31T03:00:32;41.34;36.91;53.63;;
60031;Laerm;45901;47.600;9.890;2023-05-31T03:03:01;40.16;37.32;47.55;;
60031;Laerm;45901;47.600;9.890;2023-05-31T03:05:29;39.88;37.32;43.63;;
60031;Laerm;45901;47.600;9.890;2023-05-31T03:07:58;39.95;36.91;47.59;;
60031;Laerm;45901;47.600;9.890;2023-05-31T03:10:25;40.41;37.32;48.07;;
60031;Laerm;45901;47.600;9.890;2023-05-31T03:12:53;40.10;37.12;48.92;;
60031;Laerm;45901;47.600;9.890;2023-05-31T03:15:20;39.90;37.17;46.84;;
60031;Laerm;45901;47.600;9.890;2023-05-31T03:17:47;39.78;37.52;42.35;;
60031;Laerm;45901;47.600;9.890;2023-05-31T03:20:14;39.74;36.45;43.04;;
60031;Laerm;45901;47.600;9.890;2023-05-31T03:22:41;39.71;36.91;41.46;;
60031;Laerm;45901;47.600;9.890;2023-05-31T03:25:10;39.80;37.12;42.59;;
60031;Laerm;45901;47.600;9.890;2023-05-31T03:27:37;40.24;36.91;54.92;;
60031;Laerm;45901;47.600;9.890;2023-05-31T03:30:06;40.20;37.32;50.95;;
60031;Laerm;45901;47.600;9.890;2023-05-31T03:32:33;40.32;37.12;56.42;;
60031;Laerm;45901;47.600;9.890;2023-05-31T03:35:00;39.99;37.12;44.43;;
60031;Laerm;45901;47.600;9.890;2023-05-31T03:37:28;39.97;37.52;42.35;;
60031;Laerm;45901;47.600;9.890;2023-05-31T03:39:55;40.07;37.70;43.39;;
60031;Laerm;45901;47.600;9.890;2023-05-31T03:42:23;39.93;37.52;43.34;;
60031;Laerm;45901;47.600;9.890;2023-05-31T03:44:51;40.33;37.32;47.88;;
60031;Laerm;45901;47.600;9.890;2023-05-31T03:47:18;39.99;36.91;42.29;;
60031;Laerm;45901;47.600;9.890;2023-05-31T03:49:45;39.84;37.52;41.46;;
60031;Laerm;45901;47.600;9.890;2023-05-31T03:52:12;40.06;37.12;47.38;;
60031;Laerm;45901;47.600;9.890;2023-05-31T03:54:39;39.97;37.52;45.69;;
60031;Laerm;45901;47.600;9.890;2023-05-31T03:57:07;40.15;36.91;45.66;;
60031;Laerm;45901;47.600;9.890;2023-05-31T03:59:35;41.26;37.32;51.26;;
60031;Laerm;45901;47.600;9.890;2023-05-31T04:02:03;40.83;36.91;51.13;;
60031;Laerm;45901;47.600;9.890;2023-05-31T04:04:30;40.37;37.88;44.69;;
60031;Laerm;45901;47.600;9.890;2023-05-31T04:06:58;40.37;38.02;45.91;;
60031;Laerm;45901;47.600;9.890;2023-05-31T04:09:25;40.33;37.70;45.07;;
60031;Laerm;45901;47.600;9.890;2023-05-31T04:11:52;40.19;37.32;44.03;;
60031;Laerm;45901;47.600;9.890;2023-05-31T04:14:19;40.25;37.52;48.78;;
60031;Laerm;45901;47.600;9.890;2023-05-31T04:16:47;40.11;37.70;43.14;;
60031;Laerm;45901;47.600;9.890;2023-05-31T04:19:15;40.51;37.88;52.85;;
60031;Laerm;45901;47.600;9.890;2023-05-31T04:21:42;40.19;37.70;45.04;;
60031;Laerm;45901;47.600;9.890;2023-05-31T04:24:09;39.97;37.52;42.22;;
60031;Laerm;45901;47.600;9.890;2023-05-31T04:26:36;39.91;37.32;41.75;;
60031;Laerm;45901;47.600;9.890;2023-05-31T04:29:03;40.05;37.70;46.07;;
60031;Laerm;45901;47.600;9.890;2023-05-31T04:31:31;40.10;37.88;43.99;;
60031;Laerm;45901;47.600;9.890;2023-05-31T04:34:03;40.20;37.52;46.48;;
60031;Laerm;45901;47.600;9.890;2023-05-31T04:36:31;39.95;37.52;41.75;;
60031;Laerm;45901;47.600;9.890;2023-05-31T04:39:01;39.97;37.70;44.11;;
60031;Laerm;45901;47.600;9.890;2023-05-31T04:41:31;40.01;37.70;42.93;;
60031;Laerm;45901;47.600;9.890;2023-05-31T04:43:59;40.16;37.88;47.77;;
60031;Laerm;45901;47.600;9.890;2023-05-31T04:46:26;40.16;37.70;43.34;;
60031;Laerm;45901;47.600;9.890;2023-05-31T04:48:53;40.19;37.87;45.83;;
60031;Laerm;45901;47.600;9.890;2023-05-31T04:51:24;40.48;37.70;46.22;;
60031;Laerm;45901;47.600;9.890;2023-05-31T04:53:51;40.51;38.05;47.02;;
60031;Laerm;45901;47.600;9.890;2023-05-31T04:56:18;40.41;37.52;55.47;;
60031;Laerm;45901;47.600;9.890;2023-05-31T04:58:48;41.45;37.52;52.15;;
60031;Laerm;45901;47.600;9.890;2023-05-31T05:01:15;40.69;37.88;46.57;;
60031;Laerm;45901;47.600;9.890;2023-05-31T05:03:42;40.08;37.52;44.07;;
60031;Laerm;45901;47.600;9.890;2023-05-31T05:06:15;41.05;37.52;50.85;;
60031;Laerm;45901;47.600;9.890;2023-05-31T05:08:44;40.47;38.05;45.45;;
60031;Laerm;45901;47.600;9.890;2023-05-31T05:11:11;41.21;38.37;48.58;;
60031;Laerm;45901;47.600;9.890;2023-05-31T05:13:39;42.12;39.46;49.83;;
60031;Laerm;45901;47.600;9.890;2023-05-31T05:16:06;41.52;38.05;48.59;;
60031;Laerm;45901;47.600;9.890;2023-05-31T05:18:33;41.12;38.67;43.94;;
60031;Laerm;45901;47.600;9.890;2023-05-31T05:21:00;41.55;38.37;47.32;;
60031;Laerm;45901;47.600;9.890;2023-05-31T05:23:28;41.60;38.52;44.90;;
60031;Laerm;45901;47.600;9.890;2023-05-31T05:25:56;43.34;40.33;55.87;;
60031;Laerm;45901;47.600;9.890;2023-05-31T05:28:23;43.45;40.53;58.81;;
60031;Laerm;45901;47.600;9.890;2023-05-31T05:30:51;42.89;38.81;54.72;;
60031;Laerm;45901;47.600;9.890;2023-05-31T05:33:19;40.41;37.70;43.94;;
60031;Laerm;45901;47.600;9.890;2023-05-31T05:35:46;40.73;37.88;52.39;;
60031;Laerm;45901;47.600;9.890;2023-05-31T05:38:13;40.59;37.52;44.07;;
60031;Laerm;45901;47.600;9.890;2023-05-31T05:40:40;40.43;37.32;45.83;;
60031;Laerm;45901;47.600;9.890;2023-05-31T05:43:09;40.10;37.32;42.09;;
60031;Laerm;45901;47.600;9.890;2023-05-31T05:45:36;40.16;36.91;50.81;;
60031;Laerm;45901;47.600;9.890;2023-05-31T05:48:03;40.25;37.88;51.31;;
60031;Laerm;45901;47.600;9.890;2023-05-31T05:50:31;42.41;38.05;51.26;;
60031;Laerm;45901;47.600;9.890;2023-05-31T05:52:58;43.08;37.32;53.89;;
60031;Laerm;45901;47.600;9.890;2023-05-31T05:55:25;40.25;37.32;44.83;;
60031;Laerm;45901;47.600;9.890;2023-05-31T05:57:52;40.59;37.52;47.83;;
60031;Laerm;45901;47.600;9.890;2023-05-31T06:00:21;41.38;36.91;52.22;;
60031;Laerm;45901;47.600;9.890;2023-05-31T06:02:50;40.81;37.53;46.91;;
60031;Laerm;45901;47.600;9.890;2023-05-31T06:05:17;41.24;38.05;49.21;;
60031;Laerm;45901;47.600;9.890;2023-05-31T06:07:47;40.94;37.52;51.98;;
60031;Laerm;45901;47.600;9.890;2023-05-31T06:10:14;40.09;37.70;42.03;;
60031;Laerm;45901;47.600;9.890;2023-05-31T06:12:41;40.62;38.05;43.86;;
60031;Laerm;45901;47.600;9.890;2023-05-31T06:15:09;44.80;38.32;53.99;;
60031;Laerm;45901;47.600;9.890;2023-05-31T06:17:38;40.62;37.32;47.57;;
60031;Laerm;45901;47.600;9.890;2023-05-31T06:20:06;41.38;37.88;46.95;;
60031;Laerm;45901;47.600;9.890;2023-05-31T06:22:36;45.31;38.05;53.39;;
60031;Laerm;45901;47.600;9.890;2023-05-31T06:25:04;48.06;38.47;56.26;;
60031;Laerm;45901;47.600;9.890;2023-05-31T06:27:31;40.34;37.52;43.49;;
60031;Laerm;45901;47.600;9.890;2023-05-31T06:29:59;40.22;37.70;43.19;;
60031;Laerm;45901;47.600;9.890;2023-05-31T06:32:26;40.32;37.52;48.55;;
60031;Laerm;45901;47.600;9.890;2023-05-31T06:34:55;40.17;37.88;44.51;;
60031;Laerm;45901;47.600;9.890;2023-05-31T06:37:22;40.71;37.52;44.39;;
60031;Laerm;45901;47.600;9.890;2023-05-31T06:39:50;40.16;37.32;43.58;;
60031;Laerm;45901;47.600;9.890;2023-05-31T06:42:17;41.40;37.70;59.13;;
60031;Laerm;45901;47.600;9.890;2023-05-31T06:44:44;40.48;37.70;48.96;;
60031;Laerm;45901;47.600;9.890;2023-05-31T06:47:12;41.56;37.88;49.66;;
60031;Laerm;45901;47.600;9.890;2023-05-31T06:49:40;40.92;38.21;44.90;;
60031;Laerm;45901;47.600;9.890;2023-05-31T06:52:08;40.41;37.52;47.20;;
60031;Laerm;45901;47.600;9.890;2023-05-31T06:54:37;40.62;37.52;45.11;;
60031;Laerm;45901;47.600;9.890;2023-05-31T06:57:05;40.12;36.69;45.42;;
60031;Laerm;45901;47.600;9.890;2023-05-31T06:59:32;41.00;36.91;46.43;;
60031;Laerm;45901;47.600;9.890;2023-05-31T07:01:59;41.32;37.52;51.91;;
60031;Laerm;45901;47.600;9.890;2023-05-31T07:04:26;41.00;37.70;45.89;;
60031;Laerm;45901;47.600;9.890;2023-05-31T07:06:54;39.80;37.32;43.39;;
60031;Laerm;45901;47.600;9.890;2023-05-31T07:09:23;39.76;36.45;43.14;;
60031;Laerm;45901;47.600;9.890;2023-05-31T07:11:50;41.90;37.52;51.45;;
60031;Laerm;45901;47.600;9.890;2023-05-31T07:14:17;40.58;37.32;45.30;;
60031;Laerm;45901;47.600;9.890;2023-05-31T07:16:44;42.86;39.34;49.59;;
60031;Laerm;45901;47.600;9.890;2023-05-31T07:19:11;41.54;37.32;46.15;;
60031;Laerm;45901;47.600;9.890;2023-05-31T07:21:39;40.17;37.12;43.49;;
60031;Laerm;45901;47.600;9.890;2023-05-31T07:24:06;39.81;37.12;45.36;;
60031;Laerm;45901;47.600;9.890;2023-05-31T07:26:37;40.00;37.32;43.77;;
60031;Laerm;45901;47.600;9.890;2023-05-31T07:29:04;41.33;37.70;47.24;;
60031;Laerm;45901;47.600;9.890;2023-05-31T07:31:31;40.09;37.12;49.04;;
60031;Laerm;45901;47.600;9.890;2023-05-31T07:33:58;40.65;37.70;46.76;;
60031;Laerm;45901;47.600;9.890;2023-05-31T07:36:25;42.35;38.21;49.28;;
60031;Laerm;45901;47.600;9.890;2023-05-31T07:38:52;41.05;38.21;48.85;;
60031;Laerm;45901;47.600;9.890;2023-05-31T07:41:20;41.36;37.70;48.29;;
60031;Laerm;45901;47.600;9.890;2023-05-31T07:43:48;40.92;37.88;46.10;;
60031;Laerm;45901;47.600;9.890;2023-05-31T07:46:16;41.69;37.88;47.84;;
60031;Laerm;45901;47.600;9.890;2023-05-31T07:48:43;41.19;38.21;59.74;;
60031;Laerm;45901;47.600;9.890;2023-05-31T07:51:10;42.05;39.34;48.10;;
60031;Laerm;45901;47.600;9.890;2023-05-31T07:53:38;42.09;39.21;45.48;;
60031;Laerm;45901;47.600;9.890;2023-05-31T07:56:06;41.94;38.95;46.55;;
60031;Laerm;45901;47.600;9.890;2023-05-31T07:58:33;40.53;37.52;49.75;;
60031;Laerm;45901;47.600;9.890;2023-05-31T08:01:02;42.97;38.05;52.85;;
60031;Laerm;45901;47.600;9.890;2023-05-31T08:03:29;42.17;38.81;45.30;;
60031;Laerm;45901;47.600;9.890;2023-05-31T08:05:57;42.90;39.70;47.65;;
60031;Laerm;45901;47.600;9.890;2023-05-31T08:08:24;43.56;39.99;52.10;;
60031;Laerm;45901;47.600;9.890;2023-05-31T08:10:54;43.90;40.23;51.07;;
60031;Laerm;45901;47.600;9.890;2023-05-31T08:13:22;43.90;40.62;50.14;;
60031;Laerm;45901;47.600;9.890;2023-05-31T08:15:55;46.79;40.23;54.72;;
60031;Laerm;45901;47.600;9.890;2023-05-31T08:18:27;45.80;40.43;53.16;;
60031;Laerm;45901;47.600;9.890;2023-05-31T08:20:54;43.35;38.37;49.58;;
60031;Laerm;45901;47.600;9.890;2023-05-31T08:23:23;42.16;39.81;50.88;;
60031;Laerm;45901;47.600;9.890;2023-05-31T08:25:50;43.31;39.34;52.32;;
60031;Laerm;45901;47.600;9.890;2023-05-31T08:28:19;44.46;41.26;49.43;;
60031;Laerm;45901;47.600;9.890;2023-05-31T08:30:46;44.09;41.30;53.69;;
60031;Laerm;45901;47.600;9.890;2023-05-31T08:33:14;41.59;37.70;47.59;;
60031;Laerm;45901;47.600;9.890;2023-05-31T08:35:42;42.90;36.91;49.62;;
60031;Laerm;45901;47.600;9.890;2023-05-31T08:38:10;40.87;37.70;45.07;;
60031;Laerm;45901;47.600;9.890;2023-05-31T08:40:38;43.09;38.05;53.49;;
60031;Laerm;45901;47.600;9.890;2023-05-31T08:43:06;43.47;38.52;56.55;;
60031;Laerm;45901;47.600;9.890;2023-05-31T08:45:42;41.75;37.88;49.77;;
60031;Laerm;45901;47.600;9.890;2023-05-31T08:48:17;40.78;37.70;45.17;;
60031;Laerm;45901;47.600;9.890;2023-05-31T08:50:50;41.88;37.88;45.78;;
60031;Laerm;45901;47.600;9.890;2023-05-31T08:53:17;41.73;38.21;46.73;;
60031;Laerm;45901;47.600;9.890;2023-05-31T08:55:47;42.97;38.95;49.84;;
60031;Laerm;45901;47.600;9.890;2023-05-31T08:58:17;42.24;37.52;51.40;;
60031;Laerm;45901;47.600;9.890;2023-05-31T09:00:44;41.52;37.52;55.56;;
60031;Laerm;45901;47.600;9.890;2023-05-31T09:03:12;40.94;37.88;49.16;;
60031;Laerm;45901;47.600;9.890;2023-05-31T09:05:39;40.40;37.32;44.54;;
60031;Laerm;45901;47.600;9.890;2023-05-31T09:08:08;41.32;38.05;52.66;;
60031;Laerm;45901;47.600;9.890;2023-05-31T09:10:35;41.67;38.05;46.23;;
60031;Laerm;45901;47.600;9.890;2023-05-31T09:13:03;40.75;37.32;45.72;;
60031;Laerm;45901;47.600;9.890;2023-05-31T09:15:32;40.39;37.32;49.83;;
60031;Laerm;45901;47.600;9.890;2023-05-31T09:18:13;40.79;36.69;44.80;;
60031;Laerm;45901;47.600;9.890;2023-05-31T09:20:42;40.41;37.70;44.15;;
60031;Laerm;45901;47.600;9.890;2023-05-31T09:23:10;40.68;37.12;46.97;;
60031;Laerm;45901;47.600;9.890;2023-05-31T09:25:45;40.30;37.52;47.83;;
60031;Laerm;45901;47.600;9.890;2023-05-31T09:28:14;40.40;37.52;48.02;;
60031;Laerm;45901;47.600;9.890;2023-05-31T09:30:42;40.26;37.52;50.55;;
60031;Laerm;45901;47.600;9.890;2023-05-31T09:33:09;42.00;37.70;51.22;;
60031;Laerm;45901;47.600;9.890;2023-05-31T09:35:36;42.79;38.67;54.97;;
60031;Laerm;45901;47.600;9.890;2023-05-31T09:38:05;41.13;37.32;49.68;;
60031;Laerm;45901;47.600;9.890;2023-05-31T09:40:34;40.44;37.12;46.18;;
60031;Laerm;45901;47.600;9.890;2023-05-31T09:43:01;40.76;36.91;45.69;;
60031;Laerm;45901;47.600;9.890;2023-05-31T09:45:28;40.90;37.32;51.66;;
60031;Laerm;45901;47.600;9.890;2023-05-31T09:47:56;41.06;37.32;47.11;;
60031;Laerm;45901;47.600;9.890;2023-05-31T09:50:24;40.48;37.12;51.24;;
60031;Laerm;45901;47.600;9.890;2023-05-31T09:52:56;40.42;37.32;49.30;;
60031;Laerm;45901;47.600;9.890;2023-05-31T09:55:30;39.98;37.32;42.76;;
60031;Laerm;45901;47.600;9.890;2023-05-31T09:58:06;40.78;37.70;51.16;;
60031;Laerm;45901;47.600;9.890;2023-05-31T10:00:33;41.39;37.12;51.88;;
60031;Laerm;45901;47.600;9.890;2023-05-31T10:03:02;40.43;37.12;51.60;;
60031;Laerm;45901;47.600;9.890;2023-05-31T10:05:30;40.58;37.88;44.51;;
60031;Laerm;45901;47.600;9.890;2023-05-31T10:07:57;40.72;36.91;49.04;;
60031;Laerm;45901;47.600;9.890;2023-05-31T10:10:24;41.40;37.52;46.57;;
60031;Laerm;45901;47.600;9.890;2023-05-31T10:12:57;40.19;36.91;47.72;;
60031;Laerm;45901;47.600;9.890;2023-05-31T10:15:26;40.37;37.52;47.52;;
60031;Laerm;45901;47.600;9.890;2023-05-31T10:17:58;40.52;37.12;48.88;;
60031;Laerm;45901;47.600;9.890;2023-05-31T10:20:32;41.79;37.88;47.98;;
60031;Laerm;45901;47.600;9.890;2023-05-31T10:23:01;41.18;37.12;48.08;;
60031;Laerm;45901;47.600;9.890;2023-05-31T10:25:37;40.48;37.88;43.49;;
60031;Laerm;45901;47.600;9.890;2023-05-31T10:28:10;41.76;37.88;47.06;;
60031;Laerm;45901;47.600;9.890;2023-05-31T10:30:41;43.63;40.23;53.16;;
60031;Laerm;45901;47.600;9.890;2023-05-31T10:33:11;42.52;38.37;49.23;;
60031;Laerm;45901;47.600;9.890;2023-05-31T10:35:39;42.11;38.37;50.83;;
60031;Laerm;45901;47.600;9.890;2023-05-31T10:38:07;41.83;37.70;48.95;;
60031;Laerm;45901;47.600;9.890;2023-05-31T10:40:41;41.62;38.37;47.61;;
60031;Laerm;45901;47.600;9.890;2023-05-31T10:43:16;41.31;38.05;50.45;;
60031;Laerm;45901;47.600;9.890;2023-05-31T10:45:51;41.48;37.70;51.37;;
60031;Laerm;45901;47.600;9.890;2023-05-31T10:48:26;42.97;38.67;57.47;;
60031;Laerm;45901;47.600;9.890;2023-05-31T10:51:00;43.13;38.81;49.79;;
60031;Laerm;45901;47.600;9.890;2023-05-31T10:53:29;42.87;38.67;52.21;;
60031;Laerm;45901;47.600;9.890;2023-05-31T10:56:02;40.92;38.02;48.69;;
60031;Laerm;45901;47.600;9.890;2023-05-31T10:58:33;40.60;37.52;53.27;;
60031;Laerm;45901;47.600;9.890;2023-05-31T11:01:05;41.68;38.21;52.92;;
60031;Laerm;45901;47.600;9.890;2023-05-31T11:03:34;41.75;38.52;49.44;;
60031;Laerm;45901;47.600;9.890;2023-05-31T11:06:03;42.42;37.88;51.06;;
60031;Laerm;45901;47.600;9.890;2023-05-31T11:08:35;40.33;37.70;43.99;;
60031;Laerm;45901;47.600;9.890;2023-05-31T11:11:26;41.58;38.21;48.10;;
60031;Laerm;45901;47.600;9.890;2023-05-31T11:13:58;42.36;38.21;47.10;;
60031;Laerm;45901;47.600;9.890;2023-05-31T11:16:27;41.46;38.67;50.05;;
60031;Laerm;45901;47.600;9.890;2023-05-31T11:19:05;42.07;37.88;61.44;;
60031;Laerm;45901;47.600;9.890;2023-05-31T11:21:52;44.55;38.05;63.11;;
60031;Laerm;45901;47.600;9.890;2023-05-31T11:24:28;43.52;38.05;62.10;;
60031;Laerm;45901;47.600;9.890;2023-05-31T11:26:58;41.86;38.52;56.88;;
60031;Laerm;45901;47.600;9.890;2023-05-31T11:29:55;43.34;38.37;53.09;;
60031;Laerm;45901;47.600;9.890;2023-05-31T11:32:56;43.65;40.45;54.47;;
60031;Laerm;45901;47.600;9.890;2023-05-31T11:35:24;42.98;38.67;53.05;;
60031;Laerm;45901;47.600;9.890;2023-05-31T11:38:04;42.30;37.88;59.29;;
60031;Laerm;45901;47.600;9.890;2023-05-31T11:40:32;42.62;38.05;55.04;;
60031;Laerm;45901;47.600;9.890;2023-05-31T11:43:08;41.65;38.05;50.67;;
60031;Laerm;45901;47.600;9.890;2023-05-31T11:45:44;42.22;37.52;50.10;;
60031;Laerm;45901;47.600;9.890;2023-05-31T11:48:42;40.09;36.20;43.19;;
60031;Laerm;45901;47.600;9.890;2023-05-31T11:51:11;40.14;37.52;46.84;;
60031;Laerm;45901;47.600;9.890;2023-05-31T11:53:40;39.82;36.69;42.93;;
60031;Laerm;45901;47.600;9.890;2023-05-31T11:56:07;39.95;37.12;43.14;;
60031;Laerm;45901;47.600;9.890;2023-05-31T11:58:38;40.21;37.32;46.02;;
60031;Laerm;45901;47.600;9.890;2023-05-31T12:01:05;40.75;37.12;50.93;;
60031;Laerm;45901;47.600;9.890;2023-05-31T12:03:32;40.08;37.32;42.59;;
60031;Laerm;45901;47.600;9.890;2023-05-31T12:06:01;39.87;37.12;44.83;;
60031;Laerm;45901;47.600;9.890;2023-05-31T12:08:31;40.79;36.69;50.65;;
60031;Laerm;45901;47.600;9.890;2023-05-31T12:11:03;40.58;36.45;55.61;;
60031;Laerm;45901;47.600;9.890;2023-05-31T12:13:31;42.63;38.52;55.75;;
60031;Laerm;45901;47.600;9.890;2023-05-31T12:15:59;40.49;37.88;46.80;;
60031;Laerm;45901;47.600;9.890;2023-05-31T12:18:26;40.10;36.69;44.19;;
60031;Laerm;45901;47.600;9.890;2023-05-31T12:20:54;41.07;37.12;55.10;;
60031;Laerm;45901;47.600;9.890;2023-05-31T12:23:23;40.19;37.52;43.99;;
60031;Laerm;45901;47.600;9.890;2023-05-31T12:25:51;40.17;36.91;44.58;;
60031;Laerm;45901;47.600;9.890;2023-05-31T12:28:18;40.22;36.69;46.84;;
60031;Laerm;45901;47.600;9.890;2023-05-31T12:30:47;40.55;36.69;52.90;;
60031;Laerm;45901;47.600;9.890;2023-05-31T12:33:14;40.12;37.32;45.23;;
60031;Laerm;45901;47.600;9.890;2023-05-31T12:35:44;40.34;37.12;44.54;;
60031;Laerm;45901;47.600;9.890;2023-05-31T12:38:11;40.50;37.32;47.04;;
60031;Laerm;45901;47.600;9.890;2023-05-31T12:40:42;40.55;36.69;53.46;;
60031;Laerm;45901;47.600;9.890;2023-05-31T12:43:12;40.65;36.69;53.73;;
60031;Laerm;45901;47.600;9.890;2023-05-31T12:45:44;42.51;37.32;54.64;;
60031;Laerm;45901;47.600;9.890;2023-05-31T12:48:11;40.46;37.12;47.88;;
60031;Laerm;45901;47.600;9.890;2023-05-31T12:50:44;40.73;37.32;52.39;;
60031;Laerm;45901;47.600;9.890;2023-05-31T12:53:13;41.46;36.45;54.95;;
60031;Laerm;45901;47.600;9.890;2023-05-31T12:55:41;41.44;37.12;55.36;;
60031;Laerm;45901;47.600;9.890;2023-05-31T12:58:09;41.56;38.05;45.98;;
60031;Laerm;45901;47.600;9.890;2023-05-31T13:00:36;40.57;37.52;49.73;;
60031;Laerm;45901;47.600;9.890;2023-05-31T13:03:03;40.12;36.91;43.99;;
60031;Laerm;45901;47.600;9.890;2023-05-31T13:05:32;40.32;37.12;44.65;;
60031;Laerm;45901;47.600;9.890;2023-05-31T13:07:59;42.17;37.32;48.61;;
60031;Laerm;45901;47.600;9.890;2023-05-31T13:10:27;43.74;40.89;49.65;;
60031;Laerm;45901;47.600;9.890;2023-05-31T13:12:55;42.90;39.21;51.69;;
60031;Laerm;45901;47.600;9.890;2023-05-31T13:15:23;43.68;40.89;50.18;;
60031;Laerm;45901;47.600;9.890;2023-05-31T13:17:50;43.67;40.53;50.01;;
60031;Laerm;45901;47.600;9.890;2023-05-31T13:20:18;42.04;37.70;48.58;;
60031;Laerm;45901;47.600;9.890;2023-05-31T13:22:45;40.45;37.32;45.11;;
60031;Laerm;45901;47.600;9.890;2023-05-31T13:25:12;41.89;39.08;49.24;;
60031;Laerm;45901;47.600;9.890;2023-05-31T13:27:39;42.76;38.05;55.21;;
60031;Laerm;45901;47.600;9.890;2023-05-31T13:30:09;40.78;37.70;49.32;;
60031;Laerm;45901;47.600;9.890;2023-05-31T13:32:37;42.24;38.52;54.29;;
60031;Laerm;45901;47.600;9.890;2023-05-31T13:35:06;41.21;37.70;53.09;;
60031;Laerm;45901;47.600;9.890;2023-05-31T13:37:34;41.39;38.21;52.71;;
60031;Laerm;45901;47.600;9.890;2023-05-31T13:40:02;41.07;37.52;55.17;;
60031;Laerm;45901;47.600;9.890;2023-05-31T13:42:29;43.16;38.05;56.38;;
60031;Laerm;45901;47.600;9.890;2023-05-31T13:44:56;43.14;38.37;55.35;;
60031;Laerm;45901;47.600;9.890;2023-05-31T13:47:25;43.63;38.21;57.33;;
60031;Laerm;45901;47.600;9.890;2023-05-31T13:49:53;42.70;37.87;61.26;;
60031;Laerm;45901;47.600;9.890;2023-05-31T13:52:20;43.17;38.21;58.56;;
60031;Laerm;45901;47.600;9.890;2023-05-31T13:54:48;43.69;38.37;57.85;;